Time;durP1;ratioP1;P1;durP2;ratioP2;P2;SDS_P1;SDS_P2;PMS_P1;PMS_P2;Temp;Humidity;BMP_temperature;BMP_pressure;BME280_temperature;BME280_humidity;BME280_pressure;Samples;Min_cycle;Max_cycle;Signal;HPM_P1;HPM_P2
2023/12/16 03:49:11;;;;;;;13.55;6.90;;;-1.50;92.60;;;-3.28;100.00;97704.59;5045768;28;20764;-49
2023/12/16 03:51:37;;;;;;;16.98;9.20;;;-1.60;93.20;;;-3.19;100.00;97705.63;5019329;28;20029;-49
2023/12/16 03:54:03;;;;;;;17.67;9.18;;;-1.10;92.70;;;-3.15;100.00;97713.03;5001818;28;20537;-48
2023/12/16 03:56:29;;;;;;;20.38;9.82;;;-0.50;91.90;;;-3.09;100.00;97709.94;5004050;28;20014;-49
2023/12/16 03:58:55;;;;;;;20.80;10.98;;;0.00;91.10;;;-3.04;100.00;97710.38;5000150;28;20033;-51
2023/12/16 04:01:21;;;;;;;16.17;9.00;;;0.40;90.40;;;-3.01;100.00;97724.94;5003183;28;20472;-51
2023/12/16 04:03:47;;;;;;;24.70;9.95;;;0.70;89.40;;;-2.99;100.00;97717.00;5007192;28;20034;-47
2023/12/16 04:06:14;;;;;;;40.33;10.43;;;1.00;88.30;;;-2.97;100.00;97721.13;5002072;28;20566;-47
2023/12/16 04:08:42;;;;;;;18.95;9.57;;;1.20;87.30;;;-2.93;100.00;97724.31;5001089;28;20030;-50
2023/12/16 04:11:08;;;;;;;18.65;9.00;;;1.40;86.60;;;-2.91;100.00;97730.25;5006837;28;20476;-46
2023/12/16 04:13:37;;;;;;;29.70;10.82;;;1.60;85.90;;;-2.87;100.00;97723.81;4999996;28;20064;-49
2023/12/16 04:16:04;;;;;;;16.23;8.48;;;1.70;85.40;;;-2.83;100.00;97722.59;5005737;28;20112;-47
2023/12/16 04:18:32;;;;;;;21.55;9.55;;;1.80;85.00;;;-2.81;100.00;97731.94;4996818;28;20033;-48
2023/12/16 04:20:59;;;;;;;20.45;10.68;;;1.90;84.60;;;-2.76;100.00;97738.53;5004118;28;20029;-47
2023/12/16 04:23:25;;;;;;;21.88;11.05;;;2.00;84.30;;;-2.77;100.00;97727.28;5002345;28;20484;-51
2023/12/16 04:25:51;;;;;;;20.88;11.70;;;2.10;83.90;;;-2.75;100.00;97725.38;5003434;28;20120;-47
2023/12/16 04:28:17;;;;;;;20.00;10.57;;;2.10;83.40;;;-2.76;100.00;97728.09;5000012;28;20567;-50
2023/12/16 04:30:43;;;;;;;20.08;10.73;;;2.20;83.00;;;-2.78;100.00;97719.59;5003532;28;20104;-50
2023/12/16 04:33:08;;;;;;;25.98;11.32;;;2.20;82.60;;;-2.81;100.00;97720.69;4999210;28;20025;-49
2023/12/16 04:35:34;;;;;;;21.42;10.88;;;2.20;82.40;;;-2.82;100.00;97716.41;5001877;28;20029;-48
2023/12/16 04:38:00;;;;;;;17.15;9.93;;;2.20;82.10;;;-2.86;100.00;97722.84;5003222;28;20021;-55
2023/12/16 04:40:27;;;;;;;18.33;9.70;;;2.20;81.80;;;-2.88;100.00;97719.56;5002057;28;20519;-48
2023/12/16 04:42:53;;;;;;;17.98;8.93;;;2.20;81.50;;;-2.89;100.00;97718.69;5000782;28;20063;-47
2023/12/16 04:45:20;;;;;;;18.02;8.60;;;2.20;81.30;;;-2.90;100.00;97717.06;5001105;28;20079;-49
2023/12/16 04:47:46;;;;;;;16.67;9.60;;;2.20;81.30;;;-2.92;100.00;97716.34;5002194;28;20073;-48
2023/12/16 04:50:12;;;;;;;20.55;9.65;;;2.20;81.30;;;-2.95;100.00;97715.78;5004274;28;20049;-46
2023/12/16 04:52:38;;;;;;;19.98;9.95;;;2.20;81.30;;;-2.93;100.00;97711.28;5002353;28;20045;-47
2023/12/16 04:55:04;;;;;;;18.77;9.60;;;2.20;81.30;;;-2.94;100.00;97713.06;5006491;28;20376;-47
2023/12/16 04:57:30;;;;;;;18.65;10.05;;;2.20;81.10;;;-2.96;100.00;97714.97;4997769;28;20033;-46
2023/12/16 04:59:56;;;;;;;18.13;10.82;;;2.20;80.90;;;-2.99;100.00;97715.22;4993512;28;20350;-45
2023/12/16 05:02:22;;;;;;;20.05;11.05;;;2.20;80.80;;;-2.97;100.00;97717.72;4989182;28;20053;-46
2023/12/16 05:04:48;;;;;;;20.05;11.20;;;2.20;80.70;;;-3.03;100.00;97717.25;4993820;28;20014;-47
2023/12/16 05:07:14;;;;;;;30.83;11.05;;;2.20;80.70;;;-3.04;100.00;97714.75;4984430;28;20522;-45
2023/12/16 05:09:39;;;;;;;20.13;10.80;;;2.10;80.50;;;-3.07;100.00;97713.25;4989291;28;20029;-44
2023/12/16 05:12:06;;;;;;;20.52;10.93;;;2.10;80.40;;;-3.09;100.00;97722.16;4989920;28;20037;-47
2023/12/16 05:14:32;;;;;;;19.48;9.68;;;2.10;80.30;;;-3.14;100.00;97714.69;4987890;28;20514;-50
2023/12/16 05:17:00;;;;;;;19.48;10.18;;;2.10;80.20;;;-3.17;100.00;97722.75;4988968;28;20026;-46
2023/12/16 05:19:26;;;;;;;19.80;9.68;;;2.00;80.00;;;-3.22;100.00;97717.13;4987453;28;20032;-46
2023/12/16 05:21:52;;;;;;;17.63;9.95;;;2.00;80.90;;;-3.22;100.00;97711.91;4986889;28;20026;-48
2023/12/16 05:24:20;;;;;;;19.77;10.30;;;2.00;80.00;;;-3.23;100.00;97710.22;4987544;28;20021;-47
2023/12/16 05:26:46;;;;;;;18.77;10.00;;;1.90;79.80;;;-3.25;100.00;97709.56;4985695;28;20022;-48
2023/12/16 05:29:12;;;;;;;17.52;10.02;;;1.90;79.80;;;-3.27;100.00;97714.06;4992212;28;20037;-46
2023/12/16 05:31:38;;;;;;;27.33;10.15;;;1.90;80.00;;;-3.29;100.00;97715.94;4984740;28;20489;-47
2023/12/16 05:34:03;;;;;;;19.52;10.27;;;1.90;80.00;;;-3.31;100.00;97713.47;4991261;28;20022;-48
2023/12/16 05:36:29;;;;;;;17.13;9.88;;;1.90;80.10;;;-3.31;100.00;97715.28;4991998;28;20018;-50
2023/12/16 05:38:55;;;;;;;16.85;9.25;;;1.90;80.00;;;-3.32;100.00;97716.19;4990037;28;20033;-47
2023/12/16 05:41:21;;;;;;;22.85;11.20;;;1.80;79.90;;;-3.36;100.00;97720.84;4991734;28;20026;-45
2023/12/16 05:43:47;;;;;;;23.00;11.68;;;1.80;79.80;;;-3.35;100.00;97716.47;4987384;28;20075;-46
2023/12/16 05:46:12;;;;;;;23.08;11.52;;;1.80;79.80;;;-3.35;100.00;97724.31;4985854;28;20036;-45
2023/12/16 05:48:38;;;;;;;20.95;11.63;;;1.80;79.80;;;-3.35;100.00;97729.50;4990017;28;20417;-49
2023/12/16 05:51:05;;;;;;;17.95;10.07;;;1.80;80.10;;;-3.37;100.00;97727.00;5002704;23;20021;-54
2023/12/16 05:53:35;;;;;;;17.40;9.98;;;1.80;80.10;;;-3.39;100.00;97723.69;4985957;28;20045;-53
2023/12/16 05:56:05;;;;;;;19.15;10.85;;;1.80;79.90;;;-3.40;100.00;97724.66;4984557;28;20105;-51
2023/12/16 05:58:32;;;;;;;18.85;10.55;;;1.80;79.80;;;-3.45;100.00;97724.19;4987165;28;20083;-54
2023/12/16 06:00:57;;;;;;;22.92;11.10;;;1.80;79.80;;;-3.49;100.00;97725.41;4987901;28;20018;-51
2023/12/16 06:03:24;;;;;;;32.60;10.65;;;1.80;79.70;;;-3.55;100.00;97731.94;4986863;28;20484;-50
2023/12/16 06:05:51;;;;;;;20.83;11.30;;;1.80;79.80;;;-3.52;100.00;97725.66;4986740;28;20077;-55
2023/12/16 06:08:16;;;;;;;20.48;10.90;;;1.70;79.70;;;-3.52;100.00;97716.03;4986407;28;20099;-53
2023/12/16 06:10:42;;;;;;;16.23;9.65;;;1.70;79.80;;;-3.52;100.00;97723.88;4985421;28;20425;-51
2023/12/16 06:13:08;;;;;;;17.98;9.75;;;1.70;79.70;;;-3.53;100.00;97722.22;4984012;28;20029;-51
2023/12/16 06:15:34;;;;;;;17.08;8.93;;;1.70;79.70;;;-3.54;100.00;97727.53;4981431;28;20022;-50
2023/12/16 06:18:03;;;;;;;17.38;9.63;;;1.70;79.70;;;-3.61;100.00;97716.78;4990294;28;20025;-50
2023/12/16 06:20:30;;;;;;;14.30;8.48;;;1.70;79.70;;;-3.64;100.00;97719.66;4991364;28;20018;-50
2023/12/16 06:22:56;;;;;;;13.95;8.80;;;1.70;79.60;;;-3.65;100.00;97718.00;4987797;28;20033;-51
2023/12/16 06:25:22;;;;;;;15.85;9.38;;;1.60;79.40;;;-3.63;100.00;97720.50;4988422;28;20036;-50
2023/12/16 06:27:48;;;;;;;19.73;10.35;;;1.60;79.60;;;-3.64;100.00;97722.25;4986913;28;20041;-52
2023/12/16 06:30:14;;;;;;;17.85;10.00;;;1.60;79.60;;;-3.62;100.00;97725.56;4985123;28;20117;-50
2023/12/16 06:32:40;;;;;;;17.08;10.30;;;1.60;79.90;;;-3.59;100.00;97722.72;4983980;28;20026;-51
2023/12/16 06:35:07;;;;;;;16.67;9.52;;;1.70;80.10;;;-3.57;100.00;97725.22;4987519;28;20084;-51
2023/12/16 06:37:32;;;;;;;23.55;9.23;;;1.70;80.30;;;-3.54;100.00;97727.53;4984603;28;20022;-54
2023/12/16 06:39:58;;;;;;;17.10;9.50;;;1.80;80.40;;;-3.51;100.00;97724.69;4986359;28;20022;-53
2023/12/16 06:42:24;;;;;;;33.42;9.00;;;1.80;80.50;;;-3.49;100.00;97726.22;4984106;28;20037;-49
2023/12/16 06:44:50;;;;;;;51.13;9.48;;;1.80;80.60;;;-3.44;100.00;97732.88;4985859;28;20022;-50
2023/12/16 06:47:16;;;;;;;48.28;10.25;;;1.90;80.70;;;-3.38;100.00;97727.97;4990856;28;20464;-49
2023/12/16 06:49:41;;;;;;;80.03;11.50;;;1.90;80.80;;;-3.35;100.00;97732.13;4981117;28;20052;-53
2023/12/16 06:52:07;;;;;;;73.65;10.70;;;2.00;81.20;;;-3.32;100.00;97724.88;4978120;28;20597;-52
2023/12/16 06:54:33;;;;;;;79.40;10.07;;;2.00;80.80;;;-3.28;100.00;97723.66;4980883;28;20022;-50
2023/12/16 06:56:59;;;;;;;62.42;11.10;;;2.00;80.90;;;-3.21;100.00;97725.75;4976782;28;20029;-49
2023/12/16 06:59:25;;;;;;;54.53;10.52;;;2.10;80.90;;;-3.17;100.00;97733.19;4980088;28;20030;-51
2023/12/16 07:01:51;;;;;;;73.18;11.57;;;2.10;80.90;;;-3.18;100.00;97741.16;4932541;28;24472;-51
2023/12/16 07:04:16;;;;;;;119.65;12.85;;;2.20;80.90;;;-3.16;100.00;97739.25;4930111;28;20201;-52
2023/12/16 07:06:42;;;;;;;339.42;23.52;;;2.20;80.80;;;-3.08;100.00;97740.25;4907908;29;20034;-52
2023/12/16 07:09:08;;;;;;;191.00;17.17;;;2.20;80.80;;;-3.03;100.00;97734.69;4921543;29;20043;-52
2023/12/16 07:11:40;;;;;;;46.15;11.43;;;2.30;80.90;;;-3.00;100.00;97737.03;4923835;29;20023;-51
2023/12/16 07:14:06;;;;;;;186.63;17.10;;;2.30;80.80;;;-2.98;100.00;97736.91;4929324;29;20031;-49
2023/12/16 07:16:32;;;;;;;194.75;18.90;;;2.30;80.70;;;-2.96;100.00;97740.22;4945325;28;20274;-50
2023/12/16 07:18:58;;;;;;;105.90;14.13;;;2.30;80.70;;;-2.93;100.00;97746.00;4924906;29;20394;-50
2023/12/16 07:21:24;;;;;;;194.30;16.65;;;2.40;80.60;;;-2.94;100.00;97741.75;4928325;29;20382;-49
2023/12/16 07:23:51;;;;;;;52.45;12.30;;;2.40;80.60;;;-2.90;100.00;97745.75;4929546;29;20078;-52
2023/12/16 07:26:17;;;;;;;47.17;12.07;;;2.40;80.60;;;-2.83;100.00;97746.06;4927161;29;20029;-51
2023/12/16 07:28:43;;;;;;;25.67;10.57;;;2.40;80.60;;;-2.79;100.00;97750.06;4930554;29;20474;-50
2023/12/16 07:31:08;;;;;;;24.33;9.65;;;2.40;80.60;;;-2.75;100.00;97745.44;4927948;29;20027;-50
2023/12/16 07:33:37;;;;;;;35.67;9.93;;;2.50;80.50;;;-2.72;100.00;97747.78;4926927;29;20114;-54
2023/12/16 07:36:04;;;;;;;45.03;9.65;;;2.50;80.40;;;-2.72;100.00;97753.00;4925024;29;20027;-49
2023/12/16 07:38:30;;;;;;;36.42;9.05;;;2.50;80.30;;;-2.73;100.00;97752.16;4928852;29;20086;-51
2023/12/16 07:40:56;;;;;;;58.35;9.93;;;2.60;80.30;;;-2.66;100.00;97749.88;4923978;29;20367;-49
2023/12/16 07:43:22;;;;;;;66.55;10.48;;;2.60;80.30;;;-2.65;100.00;97754.97;4926543;29;20034;-52
2023/12/16 07:45:48;;;;;;;33.40;9.13;;;2.60;80.30;;;-2.61;100.00;97751.13;4918372;29;20024;-52
2023/12/16 07:48:14;;;;;;;23.67;9.15;;;2.70;80.30;;;-2.54;100.00;97750.63;4928974;29;20133;-49
2023/12/16 07:50:39;;;;;;;18.65;9.18;;;2.70;80.30;;;-2.47;100.00;97762.22;4931003;29;20049;-50
2023/12/16 07:53:05;;;;;;;18.73;8.20;;;2.80;80.40;;;-2.41;100.00;97764.31;4937552;29;20082;-50
2023/12/16 07:55:31;;;;;;;50.97;12.82;;;2.90;80.50;;;-2.35;100.00;97756.78;4925540;29;20031;-51
2023/12/16 07:57:57;;;;;;;29.13;12.35;;;3.10;80.60;;;-2.28;100.00;97761.47;4924006;29;20058;-49
2023/12/16 08:00:23;;;;;;;118.82;12.95;;;3.20;80.60;;;-2.23;100.00;97752.28;4926024;29;20055;-51
2023/12/16 08:02:48;;;;;;;132.52;12.88;;;3.30;80.40;;;-2.16;100.00;97755.22;4926880;29;20034;-50
2023/12/16 08:05:15;;;;;;;195.38;15.68;;;3.40;80.30;;;-2.14;100.00;97758.50;4923449;28;20027;-53
2023/12/16 08:07:41;;;;;;;33.55;9.48;;;3.30;80.00;;;-2.11;100.00;97759.06;4930252;29;20026;-49
2023/12/16 08:10:08;;;;;;;263.50;17.70;;;3.40;79.90;;;-2.07;100.00;97759.63;4922905;29;20027;-50
2023/12/16 08:12:33;;;;;;;64.15;10.20;;;3.50;79.80;;;-2.03;100.00;97761.03;4921097;29;20140;-52
2023/12/16 08:15:02;;;;;;;92.95;10.52;;;3.50;79.70;;;-1.98;100.00;97764.03;4928602;29;20497;-50
2023/12/16 08:17:28;;;;;;;73.60;9.60;;;3.60;79.70;;;-2.10;100.00;97768.56;4930706;29;20023;-53
2023/12/16 08:19:54;;;;;;;223.25;16.08;;;3.60;79.60;;;-2.04;100.00;97763.75;4927727;29;20026;-53
2023/12/16 08:22:21;;;;;;;172.20;12.75;;;3.60;79.50;;;-1.95;100.00;97765.56;4919879;29;20020;-51
2023/12/16 08:24:47;;;;;;;214.27;15.43;;;3.60;79.50;;;-1.91;100.00;97762.56;4924678;29;20023;-55
2023/12/16 08:27:13;;;;;;;241.48;21.58;;;3.70;79.60;;;-1.82;100.00;97767.94;4922432;29;20434;-55
2023/12/16 08:29:39;;;;;;;218.23;16.13;;;3.70;79.60;;;-1.76;100.00;97764.78;4926348;29;20034;-54
2023/12/16 08:32:05;;;;;;;134.90;11.50;;;3.80;79.70;;;-1.72;100.00;97769.63;4921811;29;20478;-50
2023/12/16 08:34:33;;;;;;;83.20;11.40;;;3.90;79.60;;;-1.64;100.00;97768.97;4926263;29;20039;-51
2023/12/16 08:36:59;;;;;;;204.27;17.05;;;4.00;79.70;;;-1.60;100.00;97772.94;4928735;29;20486;-52
2023/12/16 08:39:25;;;;;;;323.38;20.98;;;4.10;79.70;;;-1.50;100.00;97775.59;4927784;29;20029;-50
2023/12/16 08:41:51;;;;;;;151.43;15.32;;;4.20;79.60;;;-1.52;100.00;97774.91;4926991;29;20031;-52
2023/12/16 08:44:18;;;;;;;246.00;15.48;;;4.30;79.50;;;-1.53;100.00;97781.09;4927332;29;20046;-53
2023/12/16 08:46:44;;;;;;;425.10;21.48;;;4.30;79.20;;;-1.53;100.00;97781.09;4927685;29;20026;-52
2023/12/16 08:49:10;;;;;;;483.05;26.02;;;4.30;79.00;;;-1.49;100.00;97787.69;4932357;29;20019;-52
2023/12/16 08:51:35;;;;;;;364.50;19.65;;;4.40;78.80;;;-1.52;100.00;97780.94;4934604;28;20035;-52
2023/12/16 08:54:01;;;;;;;386.23;23.33;;;4.40;78.70;;;-1.52;100.00;97785.34;4931889;28;20082;-50
2023/12/16 08:56:27;;;;;;;318.35;19.23;;;4.40;78.60;;;-1.48;100.00;97784.94;4922974;29;20100;-51
2023/12/16 08:58:53;;;;;;;332.73;18.10;;;4.40;78.50;;;-1.44;100.00;97785.53;4928518;29;20038;-53
2023/12/16 09:01:19;;;;;;;542.35;27.60;;;4.40;78.50;;;-1.41;100.00;97788.69;4928248;29;20497;-50
2023/12/16 09:03:46;;;;;;;322.73;19.33;;;4.40;78.60;;;-1.36;100.00;97797.91;4929089;29;20035;-53
2023/12/16 09:06:12;;;;;;;332.90;22.17;;;4.50;78.60;;;-1.32;100.00;97800.09;4925546;29;20023;-51
2023/12/16 09:08:38;;;;;;;145.23;15.32;;;4.50;78.60;;;-1.20;100.00;97803.41;4930133;29;20167;-50
2023/12/16 09:11:05;;;;;;;240.02;19.50;;;4.60;78.60;;;-1.15;100.00;97805.66;4925801;29;20031;-50
2023/12/16 09:13:31;;;;;;;280.80;17.80;;;4.70;78.70;;;-1.09;100.00;97824.22;4932340;29;20058;-50
2023/12/16 09:15:57;;;;;;;110.60;13.18;;;4.70;78.70;;;-1.00;100.00;97822.59;4923567;29;20051;-50
2023/12/16 09:18:23;;;;;;;203.88;15.93;;;4.80;78.70;;;-1.01;100.00;97821.75;4927602;29;20538;-49
2023/12/16 09:20:49;;;;;;;228.93;17.33;;;4.80;78.60;;;-0.94;100.00;97822.00;4921950;29;20118;-52
2023/12/16 09:23:14;;;;;;;264.67;19.92;;;4.90;78.60;;;-0.89;100.00;97826.84;4929318;29;20042;-54
2023/12/16 09:25:40;;;;;;;178.65;14.90;;;5.00;78.60;;;-0.88;100.00;97824.09;4924849;29;20020;-49
2023/12/16 09:28:06;;;;;;;158.45;15.63;;;5.00;78.40;;;-0.93;100.00;97836.78;4927307;29;20058;-49
2023/12/16 09:30:32;;;;;;;203.45;17.40;;;5.10;79.00;;;-0.91;100.00;97839.22;4931582;29;20027;-50
2023/12/16 09:32:58;;;;;;;238.73;19.48;;;5.10;78.00;;;-0.89;100.00;97839.94;4933701;29;20375;-49
2023/12/16 09:35:25;;;;;;;211.50;18.38;;;5.10;77.90;;;-0.87;100.00;97838.03;4925512;29;20385;-51
2023/12/16 09:37:51;;;;;;;136.20;15.25;;;5.20;77.90;;;-0.89;100.00;97840.75;4929126;29;20501;-49
2023/12/16 09:40:17;;;;;;;127.70;14.05;;;5.20;77.80;;;-1.07;100.00;97839.78;4923998;29;20106;-52
2023/12/16 09:42:44;;;;;;;96.13;13.40;;;5.20;77.60;;;-1.00;100.00;97851.38;4928506;29;20023;-51
2023/12/16 09:45:16;;;;;;;137.77;17.40;;;5.20;77.60;;;-1.04;100.00;97847.34;4932497;29;20027;-52
2023/12/16 09:47:45;;;;;;;101.35;14.27;;;5.20;77.50;;;-0.91;100.00;97847.91;4928314;29;20027;-52
2023/12/16 09:50:11;;;;;;;102.28;15.48;;;5.30;77.70;;;-0.83;100.00;97848.06;4929885;29;20589;-50
2023/12/16 09:52:40;;;;;;;113.90;16.58;;;5.30;77.80;;;-0.84;100.00;97850.81;4935861;28;20090;-50
2023/12/16 09:55:08;;;;;;;72.75;16.17;;;5.40;77.70;;;-0.82;100.00;97843.66;4923032;28;20053;-52
2023/12/16 09:57:38;;;;;;;221.55;21.15;;;5.40;77.60;;;-0.66;100.00;97837.84;4925575;28;20031;-50
2023/12/16 10:00:05;;;;;;;79.20;16.50;;;5.50;77.60;;;-0.57;100.00;97845.69;4927791;29;20064;-50
2023/12/16 10:02:31;;;;;;;119.57;18.30;;;5.60;77.60;;;-0.53;100.00;97836.63;4926044;29;20385;-53
2023/12/16 10:05:00;;;;;;;99.95;16.55;;;5.60;77.40;;;-0.56;100.00;97836.06;4925755;29;20019;-50
2023/12/16 10:07:26;;;;;;;99.30;17.42;;;5.70;77.30;;;-0.64;100.00;97830.69;4946736;28;20126;-50
2023/12/16 10:09:53;;;;;;;76.22;16.65;;;5.60;77.00;;;-0.61;100.00;97828.63;4925176;29;20074;-51
2023/12/16 10:12:19;;;;;;;99.68;17.42;;;5.70;77.10;;;-0.58;100.00;97830.97;4930807;29;20073;-53
2023/12/16 10:14:53;;;;;;;84.07;17.25;;;5.70;77.00;;;-0.59;100.00;97828.50;4925904;28;20102;-52
2023/12/16 10:17:21;;;;;;;88.60;18.42;;;5.70;76.90;;;-0.55;100.00;97832.47;4891735;29;20015;-51
2023/12/16 10:19:48;;;;;;;67.53;17.02;;;5.70;77.00;;;-0.59;100.00;97831.13;4922665;29;20066;-56
2023/12/16 10:22:18;;;;;;;73.82;16.60;;;5.80;77.00;;;-0.58;100.00;97832.75;4928977;29;20137;-50
2023/12/16 10:24:45;;;;;;;79.15;16.70;;;5.80;76.90;;;-0.60;100.00;97845.16;4922512;29;20486;-51
2023/12/16 10:27:12;;;;;;;86.03;18.00;;;5.80;76.80;;;-0.54;100.00;97839.38;4928410;29;20499;-50
2023/12/16 10:29:40;;;;;;;70.90;17.27;;;5.90;76.90;;;-0.43;100.00;97839.22;4925812;29;20564;-51
2023/12/16 10:32:11;;;;;;;78.88;17.00;;;5.90;76.90;;;-0.45;100.00;97837.72;4926137;29;20057;-53
2023/12/16 10:34:38;;;;;;;75.72;18.35;;;5.90;76.90;;;-0.55;100.00;97840.34;4928286;29;20086;-53
2023/12/16 10:37:09;;;;;;;85.07;16.77;;;6.00;76.70;;;-0.37;100.00;97828.19;4923023;29;20015;-54
2023/12/16 10:39:36;;;;;;;87.03;18.55;;;6.00;76.70;;;-0.26;100.00;97825.38;4927025;29;20031;-54
2023/12/16 10:42:03;;;;;;;69.10;17.60;;;6.10;76.80;;;-0.20;100.00;97831.84;4945492;28;20027;-53
2023/12/16 10:44:29;;;;;;;82.00;17.75;;;6.10;76.80;;;-0.21;100.00;97827.59;4926086;29;20077;-51
2023/12/16 10:46:56;;;;;;;76.35;18.15;;;6.20;76.70;;;-0.11;100.00;97825.78;4926352;29;20114;-57
2023/12/16 10:49:34;;;;;;;74.93;17.02;;;6.20;76.70;;;-0.20;100.00;97823.19;4925010;29;20027;-52
2023/12/16 10:52:10;;;;;;;68.18;17.20;;;6.20;76.60;;;-0.22;100.00;97825.94;4932530;28;20244;-56
2023/12/16 10:55:01;;;;;;;65.05;17.73;;;6.20;76.60;;;-0.26;100.00;97824.56;4927042;28;20083;-52
2023/12/16 10:58:07;;;;;;;65.35;16.50;;;6.20;76.70;;;-0.20;100.00;97818.75;4924102;29;20382;-54
2023/12/16 11:00:40;;;;;;;97.32;19.48;;;6.30;76.90;;;-0.06;100.00;97820.94;4913693;29;20314;-57
2023/12/16 11:03:33;;;;;;;81.50;18.33;;;6.30;76.90;;;-0.16;100.00;97814.06;4922763;28;20027;-55
2023/12/16 11:06:13;;;;;;;164.93;20.95;;;6.30;76.70;;;-0.02;100.00;97814.44;4930207;28;20039;-57
2023/12/16 11:08:40;;;;;;;99.35;18.38;;;6.30;76.80;;;-0.28;100.00;97810.81;4906100;29;20093;-58
2023/12/16 11:11:07;;;;;;;80.90;18.85;;;6.30;76.70;;;-0.04;100.00;97800.63;4922588;29;20060;-55
2023/12/16 11:13:36;;;;;;;89.85;20.05;;;6.30;76.80;;;-0.01;100.00;97802.16;4926652;29;20115;-53
2023/12/16 11:16:26;;;;;;;101.15;21.38;;;6.30;76.90;;;0.07;100.00;97804.06;4945928;28;20038;-55
2023/12/16 11:18:57;;;;;;;71.07;17.00;;;6.40;76.80;;;0.09;100.00;97808.19;4928474;29;20054;-55
2023/12/16 11:21:28;;;;;;;75.40;19.40;;;6.40;76.90;;;0.16;100.00;97805.81;4931286;29;20023;-57
2023/12/16 11:23:54;;;;;;;118.57;20.38;;;6.60;77.10;;;0.27;100.00;97800.38;4946103;28;20034;-55
2023/12/16 11:26:20;;;;;;;70.32;18.30;;;6.70;77.10;;;0.27;100.00;97795.13;4926399;29;20478;-55
2023/12/16 11:28:54;;;;;;;77.97;19.38;;;6.80;77.00;;;0.38;100.00;97796.75;4919674;29;20054;-55
2023/12/16 11:31:20;;;;;;;70.53;17.63;;;6.90;76.70;;;0.49;100.00;97795.72;4923653;29;20014;-55
2023/12/16 11:33:48;;;;;;;61.88;16.80;;;6.90;76.90;;;0.18;100.00;97798.63;4927466;29;20027;-56
2023/12/16 11:36:15;;;;;;;67.60;18.27;;;7.00;76.60;;;0.10;100.00;97799.34;4923194;29;20492;-55
2023/12/16 11:38:46;;;;;;;61.63;18.50;;;7.00;76.20;;;0.39;100.00;97793.16;4924249;29;20031;-53
2023/12/16 11:41:37;;;;;;;58.30;16.52;;;7.10;76.30;;;0.54;100.00;97791.69;4922517;29;20019;-52
2023/12/16 11:44:03;;;;;;;55.03;17.00;;;7.20;76.40;;;0.66;100.00;97793.13;4924406;29;20055;-53
2023/12/16 11:46:41;;;;;;;62.53;17.85;;;7.30;76.50;;;0.49;100.00;97779.97;4928003;29;20031;-52
2023/12/16 11:49:16;;;;;;;67.07;17.98;;;7.40;76.20;;;0.23;100.00;97775.44;4929495;29;20121;-53
2023/12/16 11:51:42;;;;;;;65.28;17.90;;;7.40;75.80;;;0.35;100.00;97776.06;4931495;29;20031;-53
2023/12/16 11:54:11;;;;;;;61.67;17.45;;;7.40;75.70;;;0.50;100.00;97758.84;4923454;29;20106;-52
2023/12/16 11:56:37;;;;;;;51.97;16.48;;;7.40;75.80;;;0.55;100.00;97766.28;4931020;29;20030;-56
2023/12/16 11:59:05;;;;;;;81.32;17.27;;;7.30;75.60;;;0.66;100.00;97766.91;4929535;29;20027;-53
2023/12/16 12:01:33;;;;;;;41.28;15.18;;;7.30;75.60;;;0.38;100.00;97766.09;4922450;29;20047;-54
2023/12/16 12:04:04;;;;;;;50.58;16.83;;;7.40;75.60;;;0.48;100.00;97771.28;4925974;29;20053;-52
2023/12/16 12:06:30;;;;;;;49.08;16.70;;;7.40;75.40;;;0.65;100.00;97757.34;4925360;29;20019;-56
2023/12/16 12:08:56;;;;;;;44.78;14.95;;;7.40;75.40;;;0.65;100.00;97757.34;4925394;29;20451;-55
2023/12/16 12:11:22;;;;;;;44.65;16.38;;;7.50;75.50;;;0.84;100.00;97761.63;4926664;29;20031;-52
2023/12/16 12:13:51;;;;;;;42.25;15.13;;;7.60;75.60;;;1.06;100.00;97762.97;4928049;29;20049;-56
2023/12/16 12:16:17;;;;;;;39.67;15.30;;;7.70;75.90;;;1.21;100.00;97762.44;4931672;29;20490;-53
2023/12/16 12:18:43;;;;;;;43.28;16.35;;;7.70;75.90;;;1.29;100.00;97758.09;4928392;29;20031;-52
2023/12/16 12:21:10;;;;;;;41.25;15.48;;;7.80;76.00;;;1.30;100.00;97757.09;4930535;29;20023;-53
2023/12/16 12:23:38;;;;;;;38.50;16.05;;;7.90;75.90;;;1.25;100.00;97753.28;4927213;29;20093;-53
2023/12/16 12:26:04;;;;;;;37.25;14.90;;;7.90;75.60;;;1.23;100.00;97742.13;4943180;28;20709;-51
2023/12/16 12:28:30;;;;;;;38.10;14.68;;;7.90;75.30;;;1.12;100.00;97733.50;4925262;29;20118;-54
2023/12/16 12:31:08;;;;;;;39.83;15.18;;;7.90;75.00;;;1.15;100.00;97732.38;4926344;29;20209;-51
2023/12/16 12:33:36;;;;;;;35.58;15.30;;;7.90;74.70;;;1.09;100.00;97728.53;4930041;29;20047;-52
2023/12/16 12:36:04;;;;;;;41.63;15.55;;;7.90;74.80;;;1.09;100.00;97715.41;4928109;28;20102;-53
2023/12/16 12:38:32;;;;;;;39.85;15.88;;;8.00;74.80;;;1.08;100.00;97712.97;4934860;28;20028;-51
2023/12/16 12:41:06;;;;;;;34.75;15.38;;;8.00;74.70;;;1.05;100.00;97714.09;4927049;29;20034;-56
2023/12/16 12:43:35;;;;;;;33.63;15.07;;;8.00;74.60;;;1.24;100.00;97709.63;4926648;29;20071;-55
2023/12/16 12:46:16;;;;;;;36.95;14.70;;;8.00;74.70;;;0.91;100.00;97707.59;4932196;29;20023;-52
2023/12/16 12:48:55;;;;;;;32.70;14.15;;;8.00;74.70;;;1.24;100.00;97707.81;4925915;29;20027;-54
2023/12/16 12:51:21;;;;;;;33.55;14.52;;;8.00;74.70;;;1.34;100.00;97702.47;4943038;28;20402;-53
2023/12/16 12:53:58;;;;;;;33.17;13.88;;;8.10;74.90;;;1.44;100.00;97695.31;4932584;29;20026;-56
2023/12/16 12:56:24;;;;;;;25.27;13.00;;;8.10;74.60;;;1.14;100.00;97683.47;4925822;29;20127;-56
2023/12/16 12:58:50;;;;;;;27.35;14.07;;;8.20;74.60;;;1.33;100.00;97692.94;4929750;29;20027;-56
2023/12/16 13:01:16;;;;;;;24.67;13.18;;;8.20;74.50;;;1.24;100.00;97693.88;4925092;29;20023;-53
2023/12/16 13:03:42;;;;;;;27.42;14.50;;;8.20;74.40;;;1.31;100.00;97690.47;4928808;29;20386;-56
2023/12/16 13:06:09;;;;;;;27.45;13.50;;;8.10;74.20;;;1.35;100.00;97688.38;4938360;23;19999;-55
2023/12/16 13:08:37;;;;;;;24.98;14.05;;;8.10;74.30;;;1.25;100.00;97698.13;4913874;29;20048;-53
2023/12/16 13:11:03;;;;;;;25.48;13.13;;;8.00;74.10;;;1.19;100.00;97699.56;4915841;29;20421;-54
2023/12/16 13:13:29;;;;;;;25.50;13.32;;;7.80;74.10;;;1.17;100.00;97704.19;4914717;29;20051;-55
2023/12/16 13:15:56;;;;;;;29.73;13.93;;;7.80;74.30;;;1.20;100.00;97706.50;4915637;29;20036;-52
2023/12/16 13:18:23;;;;;;;25.50;14.15;;;7.70;74.40;;;1.33;100.00;97711.34;4913262;29;20031;-56
2023/12/16 13:20:49;;;;;;;27.33;13.77;;;7.70;74.60;;;1.26;100.00;97702.44;4915274;29;20038;-55
2023/12/16 13:23:15;;;;;;;23.73;13.32;;;7.60;74.70;;;1.27;100.00;97715.41;4915929;29;20028;-53
2023/12/16 13:25:41;;;;;;;22.25;12.82;;;7.60;74.80;;;1.30;100.00;97715.09;4914470;29;20038;-55
2023/12/16 13:28:07;;;;;;;22.83;13.05;;;7.50;74.90;;;1.33;100.00;97704.28;4915466;29;20145;-55
2023/12/16 13:30:33;;;;;;;20.92;12.25;;;7.40;75.00;;;1.30;100.00;97709.00;4929000;29;20031;-50
2023/12/16 13:33:00;;;;;;;21.55;12.27;;;7.40;75.20;;;1.30;100.00;97712.47;4915526;29;20035;-51
2023/12/16 13:35:26;;;;;;;21.70;12.57;;;7.40;75.30;;;1.28;100.00;97719.66;4915644;29;20024;-50
2023/12/16 13:37:52;;;;;;;20.20;12.68;;;7.30;75.40;;;1.27;100.00;97715.41;4913691;29;20552;-53
2023/12/16 13:40:18;;;;;;;25.20;12.05;;;7.30;75.50;;;1.29;100.00;97712.63;4914788;29;20026;-52
2023/12/16 13:42:44;;;;;;;18.52;12.27;;;7.30;75.60;;;1.30;100.00;97711.63;4914035;29;20479;-51
2023/12/16 13:45:10;;;;;;;21.75;11.57;;;7.30;75.60;;;1.38;100.00;97714.34;4915270;29;20082;-52
2023/12/16 13:47:35;;;;;;;18.02;11.90;;;7.30;75.80;;;1.44;100.00;97708.44;4914170;29;20050;-55
2023/12/16 13:50:01;;;;;;;18.83;12.27;;;7.40;75.90;;;1.41;100.00;97702.66;4893354;29;24282;-52
2023/12/16 13:52:27;;;;;;;19.58;10.57;;;7.40;75.90;;;1.51;100.00;97704.22;4914846;29;20035;-54
2023/12/16 13:54:53;;;;;;;19.20;11.50;;;7.40;75.80;;;1.52;100.00;97707.69;4913762;29;20031;-51
2023/12/16 13:57:19;;;;;;;16.52;10.70;;;7.40;75.90;;;1.50;100.00;97704.38;4914408;29;20035;-56